Time;durP1;ratioP1;P1;durP2;ratioP2;P2;SDS_P1;SDS_P2;PMS_P1;PMS_P2;Temp;Humidity;BMP_temperature;BMP_pressure;BME280_temperature;BME280_humidity;BME280_pressure;Samples;Min_cycle;Max_cycle;Signal;HPM_P1;HPM_P2
2022/10/12 00:00:47;;;;;;;6.80;2.90;;;4.60;99.90;;;;;;5097734;28;20714;-83
2022/10/12 00:03:12;;;;;;;6.63;2.70;;;4.60;99.90;;;;;;5097346;28;20174;-83
2022/10/12 00:05:38;;;;;;;2.70;2.07;;;4.60;99.90;;;;;;5096755;28;20639;-83
2022/10/12 00:08:03;;;;;;;4.97;2.37;;;4.60;99.90;;;;;;5099087;28;20627;-83
2022/10/12 00:10:30;;;;;;;4.87;2.57;;;4.60;99.90;;;;;;5098045;28;20251;-83
2022/10/12 00:12:55;;;;;;;6.73;2.87;;;4.50;99.90;;;;;;5098643;28;20176;-83
2022/10/12 00:15:21;;;;;;;6.10;2.70;;;4.50;99.90;;;;;;5098132;28;20181;-84
2022/10/12 00:17:46;;;;;;;7.53;2.63;;;4.50;99.90;;;;;;5098289;28;20185;-84
2022/10/12 00:20:12;;;;;;;4.03;2.47;;;4.50;99.90;;;;;;5098288;28;20209;-83
2022/10/12 00:22:52;;;;;;;3.20;2.30;;;4.40;99.90;;;;;;5099543;28;20171;-83
2022/10/12 00:25:18;;;;;;;4.07;2.20;;;4.40;99.90;;;;;;5099567;28;20169;-83
2022/10/12 00:27:45;;;;;;;3.43;2.23;;;4.50;99.90;;;;;;5099372;28;20600;-84
2022/10/12 00:30:11;;;;;;;5.23;2.90;;;4.40;99.90;;;;;;5098591;28;20166;-83
2022/10/12 00:32:37;;;;;;;6.77;2.83;;;4.40;99.90;;;;;;5098806;28;20265;-83
2022/10/12 00:35:02;;;;;;;5.37;2.83;;;4.40;99.90;;;;;;5100228;28;20679;-84
2022/10/12 00:37:28;;;;;;;5.37;2.80;;;4.30;99.90;;;;;;5099873;28;20249;-83
2022/10/12 00:39:53;;;;;;;5.13;2.13;;;4.30;99.90;;;;;;5098178;28;20242;-83
2022/10/12 00:42:19;;;;;;;6.67;2.73;;;4.30;99.90;;;;;;5100221;28;20633;-82
2022/10/12 00:44:48;;;;;;;7.97;2.83;;;4.30;99.90;;;;;;5100309;28;20190;-81
2022/10/12 00:47:33;;;;;;;5.93;2.90;;;4.30;99.90;;;;;;5100903;28;20572;-81
2022/10/12 00:50:09;;;;;;;6.43;2.40;;;4.20;99.90;;;;;;5100865;28;20186;-82
2022/10/12 00:52:53;;;;;;;4.53;2.40;;;4.20;99.90;;;;;;5099227;28;20166;-82
2022/10/12 00:55:22;;;;;;;3.73;2.40;;;4.20;99.90;;;;;;5100408;28;20662;-83
2022/10/12 00:57:50;;;;;;;6.30;2.30;;;4.20;99.90;;;;;;5098596;28;20605;-84
2022/10/12 01:00:17;;;;;;;6.97;2.80;;;4.10;99.90;;;;;;5099863;28;20571;-83
2022/10/12 01:02:45;;;;;;;6.77;2.50;;;4.10;99.90;;;;;;5098250;28;20162;-84
2022/10/12 01:05:12;;;;;;;7.73;2.27;;;4.10;99.90;;;;;;5099303;28;20170;-84
2022/10/12 01:07:37;;;;;;;6.53;2.90;;;4.00;99.90;;;;;;5099514;28;20158;-83
2022/10/12 01:10:03;;;;;;;3.77;2.53;;;4.00;99.90;;;;;;5099384;28;20174;-83
2022/10/12 01:12:29;;;;;;;5.27;2.20;;;4.00;99.90;;;;;;5099024;28;20197;-84
2022/10/12 01:14:55;;;;;;;6.30;2.63;;;4.00;99.90;;;;;;5099588;28;20171;-81
2022/10/12 01:17:33;;;;;;;4.87;2.00;;;4.00;99.90;;;;;;5099187;28;20213;-83
2022/10/12 01:20:07;;;;;;;4.77;2.60;;;3.90;99.90;;;;;;5098863;28;20284;-83
2022/10/12 01:22:41;;;;;;;4.57;2.40;;;3.90;99.90;;;;;;5100399;28;20154;-83
2022/10/12 01:25:34;;;;;;;3.10;2.17;;;3.90;99.90;;;;;;5102101;28;20173;-83
2022/10/12 01:28:33;;;;;;;3.37;2.20;;;3.90;99.90;;;;;;5101786;28;20216;-84
2022/10/12 01:31:24;;;;;;;4.27;2.50;;;3.80;99.90;;;;;;5101393;28;20191;-84
2022/10/12 01:33:58;;;;;;;7.47;2.33;;;3.80;99.90;;;;;;5091452;28;20178;-84
2022/10/12 01:36:36;;;;;;;5.23;2.20;;;3.80;99.90;;;;;;5102877;28;20538;-83
2022/10/12 01:39:16;;;;;;;3.50;1.97;;;3.80;99.90;;;;;;5103025;28;20559;-84
2022/10/12 01:41:49;;;;;;;6.73;2.70;;;3.70;99.90;;;;;;5107343;28;20190;-83
2022/10/12 01:44:23;;;;;;;6.30;2.37;;;3.70;99.90;;;;;;5103000;28;20177;-83
2022/10/12 01:46:50;;;;;;;4.93;2.40;;;3.70;99.90;;;;;;5100482;28;20197;-83
2022/10/12 01:49:19;;;;;;;6.40;2.50;;;3.70;99.90;;;;;;5100217;28;20517;-84
2022/10/12 01:52:09;;;;;;;5.60;2.40;;;3.70;99.90;;;;;;5099578;28;20236;-83
2022/10/12 01:54:52;;;;;;;6.00;2.63;;;3.60;99.90;;;;;;5099588;28;20174;-83
2022/10/12 01:57:36;;;;;;;4.80;2.33;;;3.60;99.90;;;;;;5101621;28;20162;-83
2022/10/12 02:00:13;;;;;;;3.60;2.67;;;3.70;99.90;;;;;;5100917;28;20210;-83
2022/10/12 02:02:54;;;;;;;5.37;2.60;;;3.70;99.90;;;;;;5120070;22;20225;-77
2022/10/12 02:05:36;;;;;;;4.73;2.27;;;3.70;99.90;;;;;;5096002;28;20159;-78
2022/10/12 02:08:29;;;;;;;6.00;2.17;;;3.70;99.90;;;;;;5098017;28;20178;-77
2022/10/12 02:11:20;;;;;;;9.97;2.50;;;3.70;99.90;;;;;;5098758;28;20182;-79
2022/10/12 02:13:51;;;;;;;9.73;2.50;;;3.70;99.90;;;;;;5081102;28;20166;-78
2022/10/12 02:16:20;;;;;;;3.83;2.43;;;3.60;99.90;;;;;;5097361;28;20528;-76
2022/10/12 02:18:50;;;;;;;2.70;2.23;;;3.60;99.90;;;;;;5095670;28;20194;-78
2022/10/12 02:21:28;;;;;;;6.47;2.50;;;3.60;99.90;;;;;;5099045;28;20191;-79
2022/10/12 02:23:55;;;;;;;5.90;2.70;;;3.60;99.90;;;;;;5097649;28;20147;-76
2022/10/12 02:26:21;;;;;;;3.77;2.10;;;3.70;99.90;;;;;;5096894;28;20163;-78
2022/10/12 02:28:48;;;;;;;5.17;2.07;;;3.60;99.90;;;;;;5097935;28;20185;-78
2022/10/12 02:31:17;;;;;;;6.67;3.73;;;3.60;99.90;;;;;;5082295;28;20672;-78
2022/10/12 02:34:10;;;;;;;5.90;2.40;;;3.60;99.90;;;;;;5078011;28;20189;-77
2022/10/12 02:36:47;;;;;;;4.50;2.00;;;3.60;99.90;;;;;;5086387;28;20239;-77
2022/10/12 02:39:28;;;;;;;7.67;2.67;;;3.60;99.90;;;;;;5099895;28;20185;-78
2022/10/12 02:41:59;;;;;;;2.30;1.87;;;3.50;99.90;;;;;;5077139;28;20194;-77
2022/10/12 02:44:30;;;;;;;4.50;2.33;;;3.50;99.90;;;;;;5095120;28;20237;-77
2022/10/12 02:46:57;;;;;;;4.07;2.17;;;3.50;99.90;;;;;;5094693;28;20199;-77
2022/10/12 02:49:25;;;;;;;2.80;2.03;;;3.50;99.90;;;;;;5076271;28;20170;-76
2022/10/12 02:51:52;;;;;;;6.90;2.50;;;3.50;99.90;;;;;;5094097;28;20197;-77
2022/10/12 02:54:19;;;;;;;10.57;2.33;;;3.40;99.90;;;;;;5094452;28;20172;-75
2022/10/12 02:56:45;;;;;;;5.23;2.27;;;3.50;99.90;;;;;;5076017;28;20220;-77
2022/10/12 02:59:12;;;;;;;6.13;2.50;;;3.40;99.90;;;;;;5075964;28;20201;-77
2022/10/12 03:01:38;;;;;;;3.63;2.37;;;3.40;99.90;;;;;;5075790;28;20279;-77
2022/10/12 03:04:04;;;;;;;6.87;2.63;;;3.40;99.90;;;;;;5076133;28;20178;-77
2022/10/12 03:06:29;;;;;;;4.47;2.77;;;3.40;99.90;;;;;;5094156;28;20269;-76
2022/10/12 03:08:56;;;;;;;2.87;2.17;;;3.40;99.90;;;;;;5094474;28;20242;-77
2022/10/12 03:11:22;;;;;;;6.90;2.23;;;3.30;99.90;;;;;;5093713;28;20213;-76
2022/10/12 03:13:51;;;;;;;4.60;2.00;;;3.30;99.90;;;;;;5093837;28;20232;-77
2022/10/12 03:16:17;;;;;;;5.07;2.20;;;3.30;99.90;;;;;;5093819;28;20182;-77
2022/10/12 03:18:42;;;;;;;5.83;2.43;;;3.30;99.90;;;;;;5075666;28;20197;-77
2022/10/12 03:21:09;;;;;;;3.73;2.30;;;3.20;99.90;;;;;;5094352;28;20198;-76
2022/10/12 03:23:35;;;;;;;10.07;2.53;;;3.20;99.90;;;;;;5094222;28;20204;-77
2022/10/12 03:26:00;;;;;;;6.83;2.10;;;3.20;99.90;;;;;;5093824;28;20158;-77
2022/10/12 03:28:26;;;;;;;3.53;2.10;;;3.20;99.90;;;;;;5093568;28;20249;-76
2022/10/12 03:30:52;;;;;;;4.53;2.40;;;3.20;99.90;;;;;;5093517;28;20511;-77
2022/10/12 03:33:17;;;;;;;5.90;2.20;;;3.20;99.90;;;;;;5075532;28;20606;-77
2022/10/12 03:35:44;;;;;;;5.07;2.20;;;3.20;99.90;;;;;;5093482;28;20173;-77
2022/10/12 03:38:09;;;;;;;7.77;2.70;;;3.20;99.90;;;;;;5093291;28;20539;-77
2022/10/12 03:40:36;;;;;;;4.53;2.20;;;3.10;99.90;;;;;;5075061;28;20212;-77
2022/10/12 03:43:01;;;;;;;6.07;2.60;;;3.20;99.90;;;;;;5093363;28;20166;-77
2022/10/12 03:45:27;;;;;;;3.93;2.47;;;3.10;99.90;;;;;;5092195;28;20596;-76
2022/10/12 03:47:52;;;;;;;4.40;1.90;;;3.10;99.90;;;;;;5093174;28;20533;-76
2022/10/12 03:50:18;;;;;;;3.43;2.07;;;3.10;99.90;;;;;;5093413;28;20178;-76
2022/10/12 03:52:43;;;;;;;3.80;2.07;;;3.10;99.90;;;;;;5075064;28;20204;-76
2022/10/12 03:55:09;;;;;;;4.47;2.40;;;3.10;99.90;;;;;;5093308;28;20180;-77
2022/10/12 03:57:34;;;;;;;4.47;2.43;;;3.10;99.90;;;;;;5093207;28;20710;-77
2022/10/12 04:00:00;;;;;;;6.20;2.40;;;3.10;99.90;;;;;;5074794;28;20198;-77
2022/10/12 04:02:26;;;;;;;2.70;2.30;;;3.10;99.90;;;;;;5092949;28;20229;-77
2022/10/12 04:04:52;;;;;;;6.77;2.70;;;3.10;99.90;;;;;;5094647;28;20580;-77
2022/10/12 04:07:18;;;;;;;3.83;2.23;;;3.10;99.90;;;;;;5075680;28;20170;-76
2022/10/12 04:09:43;;;;;;;6.73;2.50;;;3.20;99.90;;;;;;5076082;28;20223;-76
2022/10/12 04:12:09;;;;;;;4.80;2.03;;;3.20;99.90;;;;;;5093252;28;20592;-76
2022/10/12 04:14:34;;;;;;;5.10;2.30;;;3.20;99.90;;;;;;5094260;28;20227;-76
2022/10/12 04:17:00;;;;;;;5.37;1.90;;;3.20;99.90;;;;;;5093389;28;20167;-76
2022/10/12 04:19:25;;;;;;;9.17;2.60;;;3.20;99.90;;;;;;5094452;28;20630;-77
2022/10/12 04:21:51;;;;;;;6.30;2.57;;;3.20;99.90;;;;;;5093413;28;20621;-76
2022/10/12 04:24:17;;;;;;;3.10;2.30;;;3.20;99.90;;;;;;5093209;28;20640;-76
2022/10/12 04:26:42;;;;;;;7.83;2.20;;;3.20;99.90;;;;;;5075052;28;20174;-76
2022/10/12 04:29:12;;;;;;;3.57;2.07;;;3.30;99.90;;;;;;5093129;28;20582;-77
2022/10/12 04:31:38;;;;;;;4.00;1.90;;;3.20;99.90;;;;;;5093092;28;20273;-77
2022/10/12 04:34:04;;;;;;;6.10;2.33;;;3.20;99.90;;;;;;5093332;28;20599;-77
2022/10/12 04:36:29;;;;;;;3.30;2.03;;;3.30;99.90;;;;;;5075176;28;20643;-77
2022/10/12 04:38:55;;;;;;;9.27;2.63;;;3.30;99.90;;;;;;5093491;28;20274;-79
2022/10/12 04:41:20;;;;;;;2.60;2.40;;;3.30;99.90;;;;;;5074974;28;20190;-75
2022/10/12 04:43:46;;;;;;;4.43;2.17;;;3.30;99.90;;;;;;5075504;28;20209;-77
2022/10/12 04:46:11;;;;;;;7.73;2.03;;;3.30;99.90;;;;;;5093260;28;20195;-75
2022/10/12 04:48:37;;;;;;;4.17;2.07;;;3.30;99.90;;;;;;5093719;28;20249;-76
2022/10/12 04:51:04;;;;;;;2.90;2.20;;;3.40;99.90;;;;;;5093398;28;20234;-75
2022/10/12 04:53:29;;;;;;;4.70;2.23;;;3.30;99.90;;;;;;5075119;28;20563;-76
2022/10/12 04:55:55;;;;;;;5.23;2.60;;;3.30;99.90;;;;;;5075379;28;20175;-77
2022/10/12 04:58:20;;;;;;;4.10;2.17;;;3.40;99.90;;;;;;5096946;28;20170;-77
2022/10/12 05:00:47;;;;;;;3.40;2.00;;;3.40;99.90;;;;;;5078980;28;20178;-76
2022/10/12 05:03:13;;;;;;;2.63;2.03;;;3.40;99.90;;;;;;5097387;28;20166;-75
2022/10/12 05:05:38;;;;;;;6.53;2.23;;;3.40;99.90;;;;;;5079518;28;20174;-77
2022/10/12 05:08:04;;;;;;;3.70;2.10;;;3.40;99.90;;;;;;5098478;28;20245;-77
2022/10/12 05:10:30;;;;;;;7.63;2.43;;;3.40;99.90;;;;;;5097355;28;20182;-78
2022/10/12 05:12:55;;;;;;;6.53;2.60;;;3.40;99.90;;;;;;5097468;28;20251;-76
2022/10/12 05:15:24;;;;;;;3.40;2.10;;;3.30;99.90;;;;;;5097125;28;20715;-76
2022/10/12 05:17:49;;;;;;;4.13;2.30;;;3.40;99.90;;;;;;5099418;28;20220;-77
2022/10/12 05:20:15;;;;;;;3.37;2.50;;;3.40;99.90;;;;;;5096403;28;20194;-76
2022/10/12 05:22:40;;;;;;;7.47;2.50;;;3.30;99.90;;;;;;5097451;28;20194;-77
2022/10/12 05:25:07;;;;;;;4.23;2.27;;;3.30;99.90;;;;;;5079077;28;20174;-77
2022/10/12 05:27:32;;;;;;;5.93;1.90;;;3.30;99.90;;;;;;5078696;28;20528;-77
2022/10/12 05:29:58;;;;;;;4.20;2.27;;;3.30;99.90;;;;;;5096909;28;20277;-77
2022/10/12 05:32:23;;;;;;;2.97;1.97;;;3.20;99.90;;;;;;5097346;28;20585;-77
2022/10/12 05:34:49;;;;;;;4.73;2.30;;;3.30;99.90;;;;;;5096825;28;20201;-77
2022/10/12 05:37:15;;;;;;;6.07;2.60;;;3.20;99.90;;;;;;5097707;28;20174;-77
2022/10/12 05:39:40;;;;;;;2.37;1.90;;;3.10;99.90;;;;;;5079408;28;20690;-77
2022/10/12 05:42:06;;;;;;;4.00;2.03;;;3.10;99.90;;;;;;5096882;28;20194;-77
2022/10/12 05:44:32;;;;;;;6.23;2.07;;;3.10;99.90;;;;;;5078751;28;20667;-76
2022/10/12 05:46:57;;;;;;;5.93;1.97;;;3.10;99.90;;;;;;5097603;28;20173;-77
2022/10/12 05:49:23;;;;;;;9.00;2.10;;;3.00;99.90;;;;;;5097423;28;20253;-78
2022/10/12 05:51:48;;;;;;;3.43;2.20;;;3.00;99.90;;;;;;5080378;28;20594;-78
2022/10/12 05:54:14;;;;;;;3.17;2.10;;;3.00;99.90;;;;;;5099273;28;20174;-78
2022/10/12 05:56:39;;;;;;;4.50;2.40;;;3.00;99.90;;;;;;5099099;28;20654;-77
2022/10/12 05:59:05;;;;;;;5.87;1.93;;;2.90;99.90;;;;;;5078692;28;20198;-76
2022/10/12 06:01:30;;;;;;;4.03;2.00;;;2.90;99.90;;;;;;5080078;28;20201;-78
2022/10/12 06:03:56;;;;;;;2.60;2.13;;;2.90;99.90;;;;;;5098590;28;20175;-76
2022/10/12 06:06:22;;;;;;;7.07;2.10;;;2.90;99.90;;;;;;5080843;28;20170;-77
2022/10/12 06:08:47;;;;;;;4.13;2.10;;;2.90;99.90;;;;;;5080698;28;20240;-78
2022/10/12 06:11:13;;;;;;;4.83;2.07;;;3.00;99.90;;;;;;5099410;28;20201;-76
2022/10/12 06:13:38;;;;;;;2.13;1.93;;;3.00;99.90;;;;;;5081743;28;20178;-78
2022/10/12 06:16:05;;;;;;;6.63;2.53;;;3.00;99.90;;;;;;5081268;28;20178;-78
2022/10/12 06:18:30;;;;;;;7.83;2.20;;;3.00;99.90;;;;;;5080975;28;20251;-78
2022/10/12 06:20:56;;;;;;;3.07;2.00;;;3.00;99.90;;;;;;5099728;28;20186;-78
2022/10/12 06:23:22;;;;;;;6.40;2.17;;;3.00;99.90;;;;;;5099586;28;20185;-78
2022/10/12 06:25:49;;;;;;;3.60;2.27;;;3.00;99.90;;;;;;5099131;28;20638;-78
2022/10/12 06:28:16;;;;;;;2.87;2.13;;;3.00;99.90;;;;;;5098974;28;20620;-78
2022/10/12 06:30:42;;;;;;;3.27;2.10;;;3.00;99.90;;;;;;5100293;28;20257;-77
2022/10/12 06:33:08;;;;;;;2.97;1.83;;;3.00;99.90;;;;;;5081400;28;20220;-78
2022/10/12 06:35:34;;;;;;;3.20;2.00;;;2.90;99.90;;;;;;5100140;28;20174;-78
2022/10/12 06:37:59;;;;;;;6.60;2.53;;;2.90;99.90;;;;;;5081623;28;20496;-78
2022/10/12 06:40:25;;;;;;;2.57;1.97;;;2.90;99.90;;;;;;5104566;28;20194;-77
2022/10/12 06:42:51;;;;;;;2.23;2.00;;;2.90;99.90;;;;;;5118147;28;20197;-77
2022/10/12 06:45:17;;;;;;;3.40;2.13;;;2.90;99.90;;;;;;5117524;28;20269;-77
2022/10/12 06:47:42;;;;;;;5.10;2.50;;;2.90;99.90;;;;;;5102502;28;20555;-77
2022/10/12 06:50:08;;;;;;;3.63;2.07;;;2.90;99.90;;;;;;5096967;28;20202;-77
2022/10/12 06:52:34;;;;;;;2.50;1.77;;;3.00;99.90;;;;;;5078902;28;20194;-78
2022/10/12 06:55:00;;;;;;;4.27;2.00;;;3.00;99.90;;;;;;5078747;28;20174;-78
2022/10/12 06:57:26;;;;;;;4.63;2.37;;;3.00;99.90;;;;;;5078640;28;20652;-78
2022/10/12 06:59:51;;;;;;;4.17;2.20;;;3.10;99.90;;;;;;5098996;28;20230;-78
2022/10/12 07:02:17;;;;;;;6.40;2.20;;;3.10;99.90;;;;;;5078383;28;20293;-78
2022/10/12 07:04:43;;;;;;;2.53;2.00;;;3.10;99.90;;;;;;5079399;28;20224;-77
2022/10/12 07:07:08;;;;;;;3.80;2.10;;;3.20;99.90;;;;;;5097577;28;20539;-78
2022/10/12 07:09:34;;;;;;;3.73;2.30;;;3.30;99.90;;;;;;5097592;28;20186;-78
2022/10/12 07:11:59;;;;;;;4.07;2.30;;;3.30;99.90;;;;;;5079156;28;20220;-78
2022/10/12 07:14:25;;;;;;;5.27;2.63;;;3.40;99.90;;;;;;5097904;28;20178;-79
2022/10/12 07:16:50;;;;;;;4.27;2.30;;;3.50;99.90;;;;;;5097193;28;20190;-78
2022/10/12 07:19:16;;;;;;;4.27;2.43;;;3.50;99.90;;;;;;5079705;28;20698;-78
2022/10/12 07:21:42;;;;;;;7.83;2.90;;;3.60;99.90;;;;;;5079545;28;20186;-78
2022/10/12 07:24:10;;;;;;;8.60;3.00;;;3.70;99.90;;;;;;5099000;28;20163;-76
2022/10/12 07:26:36;;;;;;;4.90;2.80;;;3.70;99.90;;;;;;5104690;28;20226;-77
2022/10/12 07:29:02;;;;;;;3.30;2.47;;;3.80;99.90;;;;;;5098648;28;20198;-78
2022/10/12 07:31:27;;;;;;;5.33;2.13;;;3.90;99.90;;;;;;5095617;28;20197;-78
2022/10/12 07:33:53;;;;;;;4.03;2.20;;;4.00;99.90;;;;;;5096126;28;20261;-78
2022/10/12 07:36:19;;;;;;;3.57;2.20;;;4.10;99.90;;;;;;5096264;28;20170;-78
2022/10/12 07:38:44;;;;;;;3.97;2.73;;;4.10;99.90;;;;;;5096888;28;20197;-78
2022/10/12 07:41:11;;;;;;;5.30;2.40;;;4.20;99.90;;;;;;5096750;28;20269;-78
2022/10/12 07:43:37;;;;;;;4.20;2.67;;;4.30;99.90;;;;;;5097329;28;20624;-77
2022/10/12 07:46:03;;;;;;;3.83;2.80;;;4.40;99.90;;;;;;5096571;28;20173;-78
2022/10/12 07:48:29;;;;;;;4.33;2.57;;;4.50;99.90;;;;;;5097829;28;20190;-77
2022/10/12 07:50:54;;;;;;;6.10;2.10;;;4.60;99.90;;;;;;5076895;28;20197;-78
2022/10/12 07:53:20;;;;;;;6.60;3.10;;;4.70;99.90;;;;;;5077498;28;20177;-78
2022/10/12 07:55:46;;;;;;;6.03;3.00;;;4.80;99.90;;;;;;5095346;28;20173;-77
2022/10/12 07:58:11;;;;;;;9.40;3.73;;;5.00;99.90;;;;;;5095583;28;20162;-78
2022/10/12 08:00:37;;;;;;;8.80;3.77;;;5.10;99.90;;;;;;5076721;28;20549;-78
2022/10/12 08:03:03;;;;;;;10.07;4.57;;;5.30;99.90;;;;;;5122779;22;20225;-79
2022/10/12 08:05:28;;;;;;;7.33;4.43;;;5.50;99.90;;;;;;5112221;28;20222;-78
2022/10/12 08:07:54;;;;;;;12.63;5.20;;;5.70;99.90;;;;;;5112112;28;20178;-77
2022/10/12 08:10:20;;;;;;;9.87;4.73;;;5.80;99.90;;;;;;5112057;28;20176;-78
2022/10/12 08:12:46;;;;;;;9.90;5.07;;;5.90;99.90;;;;;;5113356;28;20194;-77
2022/10/12 08:15:13;;;;;;;11.97;5.37;;;6.00;99.90;;;;;;5112118;28;20180;-77
2022/10/12 08:17:39;;;;;;;14.83;5.53;;;6.20;99.90;;;;;;5113681;28;20635;-78
2022/10/12 08:20:05;;;;;;;11.63;5.57;;;6.30;99.90;;;;;;5112190;28;20204;-77
2022/10/12 08:22:31;;;;;;;10.50;6.20;;;6.30;99.90;;;;;;5113381;28;20189;-78
2022/10/12 08:24:57;;;;;;;12.87;5.50;;;6.40;99.90;;;;;;5112185;28;20181;-77
2022/10/12 08:27:22;;;;;;;16.37;5.17;;;6.50;99.90;;;;;;5113879;28;20695;-78
2022/10/12 08:29:48;;;;;;;13.53;5.30;;;6.50;99.90;;;;;;5112326;28;20185;-77
2022/10/12 08:32:13;;;;;;;14.53;5.37;;;6.60;99.90;;;;;;5114131;28;20189;-78
2022/10/12 08:34:39;;;;;;;15.37;5.20;;;6.70;99.90;;;;;;5116513;28;20527;-78
2022/10/12 08:37:04;;;;;;;13.80;5.13;;;6.90;99.90;;;;;;5117784;28;20180;-78
2022/10/12 08:39:30;;;;;;;13.43;5.27;;;7.00;99.90;;;;;;5117863;28;20201;-78
2022/10/12 08:42:07;;;;;;;11.70;5.20;;;7.10;99.90;;;;;;5117659;28;20189;-78
2022/10/12 08:44:45;;;;;;;8.13;4.83;;;7.20;99.90;;;;;;5118158;28;20562;-78
2022/10/12 08:47:19;;;;;;;17.20;4.20;;;7.30;99.90;;;;;;5118103;28;20160;-79
2022/10/12 08:49:45;;;;;;;14.77;4.13;;;7.50;99.90;;;;;;5117832;28;20302;-78
2022/10/12 08:52:18;;;;;;;10.73;4.07;;;7.60;99.90;;;;;;5116601;28;20212;-78
2022/10/12 08:54:45;;;;;;;10.07;3.87;;;7.80;99.90;;;;;;5116449;28;20162;-78
2022/10/12 08:57:16;;;;;;;8.30;3.80;;;7.90;99.90;;;;;;5118154;28;20170;-78
2022/10/12 08:59:42;;;;;;;11.47;3.57;;;8.00;99.90;;;;;;5116558;28;20572;-78
2022/10/12 09:02:33;;;;;;;10.10;3.60;;;8.30;99.90;;;;;;5118051;28;20239;-78
2022/10/12 09:05:02;;;;;;;8.17;3.23;;;8.40;99.90;;;;;;5117913;28;20564;-77
2022/10/12 09:07:40;;;;;;;11.63;3.17;;;8.60;99.90;;;;;;5117278;28;20170;-80
2022/10/12 09:10:23;;;;;;;8.10;2.87;;;8.80;99.90;;;;;;5117935;28;20499;-77
2022/10/12 09:13:13;;;;;;;6.03;2.63;;;8.90;99.90;;;;;;5117978;28;20528;-77
2022/10/12 09:15:52;;;;;;;9.27;2.77;;;9.10;99.90;;;;;;5118196;28;20298;-77
2022/10/12 09:18:24;;;;;;;5.30;2.07;;;9.20;99.90;;;;;;5116193;28;20185;-78
2022/10/12 09:20:51;;;;;;;8.70;2.20;;;9.40;99.90;;;;;;5117752;28;20272;-77
2022/10/12 09:23:26;;;;;;;5.63;2.17;;;9.50;99.90;;;;;;5116532;28;20198;-77
2022/10/12 09:26:14;;;;;;;5.53;2.00;;;9.70;99.90;;;;;;5116168;28;20164;-77
2022/10/12 09:28:42;;;;;;;7.87;2.17;;;9.80;99.90;;;;;;5118120;28;20146;-77
2022/10/12 09:31:14;;;;;;;6.00;1.83;;;9.90;99.90;;;;;;5117003;28;20174;-79
2022/10/12 09:33:49;;;;;;;5.80;2.60;;;10.00;99.90;;;;;;5117378;28;20188;-77
2022/10/12 09:36:19;;;;;;;6.20;1.67;;;10.10;99.90;;;;;;5117336;28;20234;-78
2022/10/12 09:38:45;;;;;;;9.37;2.17;;;10.20;99.90;;;;;;5116292;28;20170;-78
2022/10/12 09:41:22;;;;;;;14.80;2.30;;;10.30;99.90;;;;;;5117513;28;20174;-79
2022/10/12 09:43:55;;;;;;;7.70;2.30;;;10.30;99.90;;;;;;5116565;28;20211;-79
2022/10/12 09:46:30;;;;;;;6.30;2.13;;;10.30;99.90;;;;;;5117980;28;20631;-78
2022/10/12 09:48:58;;;;;;;6.93;1.93;;;10.40;99.90;;;;;;5117767;28;20622;-78
2022/10/12 09:51:24;;;;;;;5.00;1.70;;;10.50;99.90;;;;;;5117754;28;20253;-78
2022/10/12 09:53:50;;;;;;;9.00;2.47;;;10.50;99.90;;;;;;5117432;28;20170;-78
2022/10/12 09:56:23;;;;;;;7.13;2.23;;;10.60;99.90;;;;;;5115962;28;20173;-78
2022/10/12 09:58:55;;;;;;;6.43;2.43;;;10.70;99.90;;;;;;5117322;28;20197;-79
2022/10/12 10:01:34;;;;;;;7.47;2.40;;;10.80;99.90;;;;;;5117606;28;20165;-79
2022/10/12 10:04:35;;;;;;;7.00;1.97;;;10.80;99.90;;;;;;5117776;28;20188;-79
2022/10/12 10:07:26;;;;;;;8.50;2.83;;;10.80;99.90;;;;;;5102685;28;20218;-79
2022/10/12 10:10:12;;;;;;;7.47;2.50;;;10.90;99.90;;;;;;5115140;28;20625;-77
2022/10/12 10:12:52;;;;;;;7.80;2.47;;;11.10;99.90;;;;;;5115766;28;20200;-78
2022/10/12 10:15:38;;;;;;;9.80;2.30;;;11.20;99.90;;;;;;5115950;28;20157;-78
2022/10/12 10:18:16;;;;;;;10.47;2.20;;;11.30;99.90;;;;;;5114681;28;20642;-78
2022/10/12 10:20:49;;;;;;;7.53;2.60;;;11.40;99.90;;;;;;5116061;28;20190;-78
2022/10/12 10:23:28;;;;;;;8.03;2.30;;;11.40;99.90;;;;;;5116458;28;20189;-77
2022/10/12 10:26:09;;;;;;;8.97;2.30;;;11.60;99.90;;;;;;5116784;28;20169;-78
2022/10/12 10:28:36;;;;;;;7.50;2.27;;;11.70;1.00;;;;;;5116897;28;20181;-77
2022/10/12 10:31:06;;;;;;;6.93;2.43;;;11.80;99.90;;;;;;5115326;28;20177;-78
2022/10/12 10:33:34;;;;;;;4.67;2.40;;;11.80;1.00;;;;;;5115203;28;20574;-78
2022/10/12 10:36:11;;;;;;;6.37;2.50;;;11.90;1.00;;;;;;5116861;28;20173;-78
2022/10/12 10:38:58;;;;;;;10.60;2.77;;;12.00;99.90;;;;;;5116379;28;20154;-77
2022/10/12 10:41:36;;;;;;;12.57;2.70;;;12.00;99.90;;;;;;5114854;28;20280;-78
2022/10/12 10:44:03;;;;;;;7.77;2.63;;;12.00;99.90;;;;;;5117091;28;20162;-78
2022/10/12 10:46:31;;;;;;;10.77;2.57;;;12.10;49.10;;;;;;5115713;28;20180;-78
2022/10/12 10:49:06;;;;;;;12.43;2.70;;;12.10;99.90;;;;;;5115357;28;20178;-79
2022/10/12 10:51:48;;;;;;;11.60;2.73;;;12.20;99.90;;;;;;5116305;28;20167;-79
2022/10/12 10:54:24;;;;;;;8.33;2.17;;;12.20;99.90;;;;;;5116526;28;20161;-78
2022/10/12 10:56:55;;;;;;;6.03;2.40;;;12.30;99.90;;;;;;5116212;28;20190;-79
2022/10/12 10:59:28;;;;;;;10.40;2.20;;;12.40;99.90;;;;;;5116485;28;20246;-78
2022/10/12 11:01:57;;;;;;;6.60;2.40;;;12.40;99.90;;;;;;5114929;28;20209;-79
2022/10/12 11:04:33;;;;;;;7.17;2.60;;;12.50;1.00;;;;;;5116010;28;20158;-79
2022/10/12 11:07:16;;;;;;;11.40;2.70;;;12.50;99.90;;;;;;5114708;28;20215;-79
2022/10/12 11:09:44;;;;;;;7.60;2.50;;;12.60;99.90;;;;;;5114922;28;20665;-78
2022/10/12 11:12:18;;;;;;;7.07;2.70;;;12.70;99.90;;;;;;5114487;28;20577;-78
2022/10/12 11:14:47;;;;;;;6.43;2.30;;;12.70;99.90;;;;;;5114908;28;20276;-78
2022/10/12 11:17:20;;;;;;;8.80;2.53;;;12.80;14.00;;;;;;5114505;28;20181;-78
2022/10/12 11:20:30;;;;;;;7.67;2.50;;;12.90;1.00;;;;;;5115591;28;20201;-78
2022/10/12 11:23:03;;;;;;;8.17;2.70;;;13.00;58.50;;;;;;5104326;28;20209;-78
2022/10/12 11:25:35;;;;;;;10.07;2.80;;;13.10;99.90;;;;;;5115733;28;20185;-78
2022/10/12 11:28:01;;;;;;;7.80;2.73;;;13.10;99.90;;;;;;5114313;28;20166;-79
2022/10/12 11:30:35;;;;;;;5.90;2.60;;;13.20;99.90;;;;;;5115884;28;20174;-78
2022/10/12 11:33:07;;;;;;;7.00;3.03;;;13.30;99.90;;;;;;5115457;28;20193;-78
2022/10/12 11:35:39;;;;;;;8.47;2.93;;;13.40;99.90;;;;;;5114170;28;20173;-78
2022/10/12 11:38:27;;;;;;;13.30;3.40;;;13.40;99.90;;;;;;5115948;28;20169;-78
2022/10/12 11:41:08;;;;;;;9.40;2.97;;;13.50;99.90;;;;;;5114211;28;20222;-80
2022/10/12 11:43:43;;;;;;;9.40;3.27;;;13.60;1.00;;;;;;5115468;28;20185;-78
2022/10/12 11:46:13;;;;;;;5.77;2.50;;;13.70;99.90;;;;;;5113985;28;20161;-78
2022/10/12 11:49:00;;;;;;;8.73;2.80;;;13.70;99.90;;;;;;5114434;28;20180;-78
2022/10/12 11:51:25;;;;;;;9.33;2.67;;;13.80;1.00;;;;;;5115399;28;20158;-78
2022/10/12 11:54:09;;;;;;;10.63;2.57;;;13.80;1.00;;;;;;5114104;28;20238;-78
2022/10/12 11:56:51;;;;;;;5.17;2.40;;;13.90;1.00;;;;;;5114036;28;20169;-78
2022/10/12 11:59:30;;;;;;;11.10;2.97;;;14.10;99.90;;;;;;5113891;28;20192;-78
2022/10/12 12:02:11;;;;;;;5.57;2.50;;;14.10;99.90;;;;;;5115119;28;20193;-78
2022/10/12 12:04:40;;;;;;;7.67;2.70;;;14.20;1.00;;;;;;5115344;28;20152;-78
2022/10/12 12:07:39;;;;;;;9.00;2.53;;;14.20;99.90;;;;;;5113512;28;20174;-78
2022/10/12 12:10:24;;;;;;;5.77;2.43;;;14.20;1.00;;;;;;5114253;28;20169;-78
2022/10/12 12:13:16;;;;;;;7.53;2.47;;;14.20;64.80;;;;;;5115183;28;20610;-78
2022/10/12 12:15:50;;;;;;;8.80;2.60;;;14.30;84.70;;;;;;5114929;28;20154;-78
2022/10/12 12:18:25;;;;;;;7.03;2.63;;;14.30;99.90;;;;;;5114262;28;20268;-78
2022/10/12 12:21:06;;;;;;;5.83;2.73;;;14.40;99.90;;;;;;5115100;28;20197;-78
2022/10/12 12:23:39;;;;;;;7.83;2.90;;;14.40;99.90;;;;;;5113429;28;20196;-78
2022/10/12 12:26:10;;;;;;;4.83;2.27;;;14.40;99.90;;;;;;5113288;28;20166;-79
2022/10/12 12:28:39;;;;;;;10.10;2.60;;;14.40;99.90;;;;;;5113786;28;20162;-78
2022/10/12 12:31:08;;;;;;;6.53;2.40;;;14.50;99.90;;;;;;5113821;28;20169;-78
2022/10/12 12:33:40;;;;;;;7.23;2.70;;;14.50;99.90;;;;;;5114626;28;20252;-78
2022/10/12 12:36:09;;;;;;;6.90;2.57;;;14.50;99.90;;;;;;5115364;28;20149;-78
2022/10/12 12:38:57;;;;;;;6.93;2.60;;;14.60;1.00;;;;;;5115461;28;20162;-78
2022/10/12 12:41:49;;;;;;;8.00;2.20;;;14.60;1.00;;;;;;5114087;28;20217;-79
2022/10/12 12:44:33;;;;;;;6.20;2.03;;;14.70;1.00;;;;;;5115770;28;20162;-78
2022/10/12 12:47:01;;;;;;;5.47;2.23;;;14.70;92.80;;;;;;5115471;28;20592;-78
2022/10/12 12:49:36;;;;;;;6.93;2.37;;;14.70;99.90;;;;;;5113986;28;20531;-78
2022/10/12 12:52:01;;;;;;;8.40;2.53;;;14.70;99.90;;;;;;5113998;28;20395;-78
2022/10/12 12:54:27;;;;;;;7.67;2.43;;;14.80;99.90;;;;;;5113869;28;20177;-78
2022/10/12 12:57:21;;;;;;;4.40;2.83;;;14.90;99.90;;;;;;5114900;28;20170;-78
2022/10/12 13:00:05;;;;;;;9.63;2.63;;;14.90;99.90;;;;;;5113371;28;20190;-78
2022/10/12 13:02:43;;;;;;;7.73;2.77;;;14.90;1.00;;;;;;5114506;28;20197;-78
2022/10/12 13:05:28;;;;;;;7.00;3.07;;;14.90;1.00;;;;;;5113651;28;20177;-78
2022/10/12 13:08:01;;;;;;;4.97;2.60;;;14.90;1.00;;;;;;5113722;28;20211;-78
2022/10/12 13:10:52;;;;;;;6.97;2.53;;;14.90;1.00;;;;;;5114110;28;20649;-78